sensor_id;sensor_type;location;lat;lon;timestamp;temperature;humidity
18974;DHT22;9621;48.690;9.466;2022-12-07T09:07:32;-0.80;99.90
18974;DHT22;9621;48.690;9.466;2022-12-07T09:10:05;-0.70;99.90
18974;DHT22;9621;48.690;9.466;2022-12-07T09:12:32;-0.30;99.90
18974;DHT22;9621;48.690;9.466;2022-12-07T09:14:59;0.10;99.90
18974;DHT22;9621;48.690;9.466;2022-12-07T09:17:28;0.50;99.90
18974;DHT22;9621;48.690;9.466;2022-12-07T09:19:58;0.90;99.90
18974;DHT22;9621;48.690;9.466;2022-12-07T09:22:30;1.30;99.90
18974;DHT22;9621;48.690;9.466;2022-12-07T09:24:57;1.60;99.90
18974;DHT22;9621;48.690;9.466;2022-12-07T09:27:24;1.80;99.90
18974;DHT22;9621;48.690;9.466;2022-12-07T09:29:51;2.10;99.90
18974;DHT22;9621;48.690;9.466;2022-12-07T09:32:18;2.30;99.90
18974;DHT22;9621;48.690;9.466;2022-12-07T09:34:45;2.50;99.90
18974;DHT22;9621;48.690;9.466;2022-12-07T09:37:12;2.70;99.90
18974;DHT22;9621;48.690;9.466;2022-12-07T09:39:41;2.90;99.90
18974;DHT22;9621;48.690;9.466;2022-12-07T09:42:08;3.10;99.90
18974;DHT22;9621;48.690;9.466;2022-12-07T09:44:40;3.30;99.90
18974;DHT22;9621;48.690;9.466;2022-12-07T09:47:09;3.40;99.90
18974;DHT22;9621;48.690;9.466;2022-12-07T09:49:36;3.60;99.90
18974;DHT22;9621;48.690;9.466;2022-12-07T09:52:17;3.70;99.90
18974;DHT22;9621;48.690;9.466;2022-12-07T09:54:49;3.80;99.90
18974;DHT22;9621;48.690;9.466;2022-12-07T09:57:17;3.90;99.90
18974;DHT22;9621;48.690;9.466;2022-12-07T09:59:44;4.00;99.90
18974;DHT22;9621;48.690;9.466;2022-12-07T10:02:28;4.10;99.90
18974;DHT22;9621;48.690;9.466;2022-12-07T10:04:59;4.20;99.90
18974;DHT22;9621;48.690;9.466;2022-12-07T10:07:25;4.20;99.90
18974;DHT22;9621;48.690;9.466;2022-12-07T10:09:54;4.20;99.90
18974;DHT22;9621;48.690;9.466;2022-12-07T10:12:21;4.30;99.90
18974;DHT22;9621;48.690;9.466;2022-12-07T10:14:56;4.40;99.90
18974;DHT22;9621;48.690;9.466;2022-12-07T10:17:32;4.40;99.90
18974;DHT22;9621;48.690;9.466;2022-12-07T10:20:21;4.40;99.90
18974;DHT22;9621;48.690;9.466;2022-12-07T10:22:58;4.50;99.90
18974;DHT22;9621;48.690;9.466;2022-12-07T10:25:29;4.50;99.90
18974;DHT22;9621;48.690;9.466;2022-12-07T10:27:59;4.50;99.90
18974;DHT22;9621;48.690;9.466;2022-12-07T10:30:27;4.60;99.90
18974;DHT22;9621;48.690;9.466;2022-12-07T10:32:54;4.60;99.90
18974;DHT22;9621;48.690;9.466;2022-12-07T10:35:24;4.70;99.90
18974;DHT22;9621;48.690;9.466;2022-12-07T10:37:53;4.80;99.90
18974;DHT22;9621;48.690;9.466;2022-12-07T10:40:27;4.80;99.90
18974;DHT22;9621;48.690;9.466;2022-12-07T10:43:09;4.80;99.90
18974;DHT22;9621;48.690;9.466;2022-12-07T10:45:58;4.90;99.90
18974;DHT22;9621;48.690;9.466;2022-12-07T10:48:35;5.00;99.90
18974;DHT22;9621;48.690;9.466;2022-12-07T10:51:06;5.10;99.90
18974;DHT22;9621;48.690;9.466;2022-12-07T10:53:52;5.10;99.90
18974;DHT22;9621;48.690;9.466;2022-12-07T10:56:48;5.20;99.90
18974;DHT22;9621;48.690;9.466;2022-12-07T10:59:29;5.30;99.90
18974;DHT22;9621;48.690;9.466;2022-12-07T11:02:10;5.40;99.90
18974;DHT22;9621;48.690;9.466;2022-12-07T11:04:56;5.30;99.90
18974;DHT22;9621;48.690;9.466;2022-12-07T11:07:37;5.40;99.90
18974;DHT22;9621;48.690;9.466;2022-12-07T11:10:10;5.40;99.90
18974;DHT22;9621;48.690;9.466;2022-12-07T11:13:04;5.40;99.90
18974;DHT22;9621;48.690;9.466;2022-12-07T11:15:42;5.40;99.90
18974;DHT22;9621;48.690;9.466;2022-12-07T11:18:20;5.40;99.90
18974;DHT22;9621;48.690;9.466;2022-12-07T11:20:53;5.40;99.90
18974;DHT22;9621;48.690;9.466;2022-12-07T11:23:27;5.50;99.90
18974;DHT22;9621;48.690;9.466;2022-12-07T11:26:02;5.40;99.90
18974;DHT22;9621;48.690;9.466;2022-12-07T11:28:46;5.40;99.90
18974;DHT22;9621;48.690;9.466;2022-12-07T11:31:24;5.40;99.90
18974;DHT22;9621;48.690;9.466;2022-12-07T11:34:00;5.40;99.90
18974;DHT22;9621;48.690;9.466;2022-12-07T11:36:36;5.40;99.90
18974;DHT22;9621;48.690;9.466;2022-12-07T11:39:10;5.40;99.90
18974;DHT22;9621;48.690;9.466;2022-12-07T11:41:40;5.40;99.90
18974;DHT22;9621;48.690;9.466;2022-12-07T11:44:27;5.40;99.90
18974;DHT22;9621;48.690;9.466;2022-12-07T11:47:01;5.40;99.90
18974;DHT22;9621;48.690;9.466;2022-12-07T11:49:40;5.40;99.90
18974;DHT22;9621;48.690;9.466;2022-12-07T11:52:16;5.40;99.90
18974;DHT22;9621;48.690;9.466;2022-12-07T11:54:46;5.40;99.90
18974;DHT22;9621;48.690;9.466;2022-12-07T11:57:19;5.40;99.90
18974;DHT22;9621;48.690;9.466;2022-12-07T11:59:52;5.40;99.90
18974;DHT22;9621;48.690;9.466;2022-12-07T12:02:28;5.50;99.90
18974;DHT22;9621;48.690;9.466;2022-12-07T12:05:03;5.50;99.90
18974;DHT22;9621;48.690;9.466;2022-12-07T12:07:33;5.50;99.90
18974;DHT22;9621;48.690;9.466;2022-12-07T12:10:04;5.50;99.90
18974;DHT22;9621;48.690;9.466;2022-12-07T12:12:50;5.50;99.90
18974;DHT22;9621;48.690;9.466;2022-12-07T12:15:35;5.40;99.90
18974;DHT22;9621;48.690;9.466;2022-12-07T12:18:22;5.40;99.90
18974;DHT22;9621;48.690;9.466;2022-12-07T12:20:55;5.50;99.90
18974;DHT22;9621;48.690;9.466;2022-12-07T12:23:27;5.50;99.90
18974;DHT22;9621;48.690;9.466;2022-12-07T12:25:57;5.50;99.90
18974;DHT22;9621;48.690;9.466;2022-12-07T12:28:29;5.60;99.90
18974;DHT22;9621;48.690;9.466;2022-12-07T12:31:13;5.60;99.90
18974;DHT22;9621;48.690;9.466;2022-12-07T12:33:44;5.60;99.90
18974;DHT22;9621;48.690;9.466;2022-12-07T12:36:21;5.50;99.90
18974;DHT22;9621;48.690;9.466;2022-12-07T12:38:50;5.60;99.90
18974;DHT22;9621;48.690;9.466;2022-12-07T12:44:42;5.60;99.90
18974;DHT22;9621;48.690;9.466;2022-12-07T12:50:33;5.50;99.90
18974;DHT22;9621;48.690;9.466;2022-12-07T12:53:13;5.50;99.90
18974;DHT22;9621;48.690;9.466;2022-12-07T12:56:05;5.40;99.90
18974;DHT22;9621;48.690;9.466;2022-12-07T12:58:37;5.50;99.90
18974;DHT22;9621;48.690;9.466;2022-12-07T13:04:39;5.40;99.90
18974;DHT22;9621;48.690;9.466;2022-12-07T13:07:13;5.40;99.90
18974;DHT22;9621;48.690;9.466;2022-12-07T13:09:57;5.30;99.90
18974;DHT22;9621;48.690;9.466;2022-12-07T13:12:25;5.30;99.90
18974;DHT22;9621;48.690;9.466;2022-12-07T13:14:58;5.20;99.90
18974;DHT22;9621;48.690;9.466;2022-12-07T13:18:01;5.10;99.90
18974;DHT22;9621;48.690;9.466;2022-12-07T13:20:49;5.10;99.90
18974;DHT22;9621;48.690;9.466;2022-12-07T13:23:24;5.10;99.90
18974;DHT22;9621;48.690;9.466;2022-12-07T13:25:58;5.00;99.90
18974;DHT22;9621;48.690;9.466;2022-12-07T13:28:33;4.90;99.90
18974;DHT22;9621;48.690;9.466;2022-12-07T13:31:16;4.90;99.90
18974;DHT22;9621;48.690;9.466;2022-12-07T13:33:46;4.90;99.90
18974;DHT22;9621;48.690;9.466;2022-12-07T13:36:22;4.90;99.90
18974;DHT22;9621;48.690;9.466;2022-12-07T13:38:56;4.90;99.90
18974;DHT22;9621;48.690;9.466;2022-12-07T13:41:24;4.90;99.90
18974;DHT22;9621;48.690;9.466;2022-12-07T13:43:55;4.90;99.90
18974;DHT22;9621;48.690;9.466;2022-12-07T13:46:35;4.90;99.90
18974;DHT22;9621;48.690;9.466;2022-12-07T13:49:20;4.90;99.90
18974;DHT22;9621;48.690;9.466;2022-12-07T13:51:48;4.90;99.90
18974;DHT22;9621;48.690;9.466;2022-12-07T13:54:17;4.90;99.90
18974;DHT22;9621;48.690;9.466;2022-12-07T13:56:47;4.80;99.90
18974;DHT22;9621;48.690;9.466;2022-12-07T13:59:18;4.80;99.90
18974;DHT22;9621;48.690;9.466;2022-12-07T14:01:46;4.80;99.90
18974;DHT22;9621;48.690;9.466;2022-12-07T14:04:31;4.70;99.90
18974;DHT22;9621;48.690;9.466;2022-12-07T14:06:58;4.60;99.90
18974;DHT22;9621;48.690;9.466;2022-12-07T14:09:28;4.60;99.90
18974;DHT22;9621;48.690;9.466;2022-12-07T14:11:57;4.60;99.90
18974;DHT22;9621;48.690;9.466;2022-12-07T14:14:26;4.50;99.90
18974;DHT22;9621;48.690;9.466;2022-12-07T14:16:59;4.50;99.90
18974;DHT22;9621;48.690;9.466;2022-12-07T14:19:45;4.40;99.90
18974;DHT22;9621;48.690;9.466;2022-12-07T14:22:31;4.30;99.90
18974;DHT22;9621;48.690;9.466;2022-12-07T14:25:09;4.30;99.90
18974;DHT22;9621;48.690;9.466;2022-12-07T14:27:38;4.30;99.90
18974;DHT22;9621;48.690;9.466;2022-12-07T14:30:15;4.20;99.90
18974;DHT22;9621;48.690;9.466;2022-12-07T14:32:43;4.20;99.90
18974;DHT22;9621;48.690;9.466;2022-12-07T14:35:16;4.10;99.90
18974;DHT22;9621;48.690;9.466;2022-12-07T14:37:45;4.10;99.90
18974;DHT22;9621;48.690;9.466;2022-12-07T14:40:16;4.10;99.90
18974;DHT22;9621;48.690;9.466;2022-12-07T14:42:43;4.10;99.90
18974;DHT22;9621;48.690;9.466;2022-12-07T14:45:14;4.00;99.90
18974;DHT22;9621;48.690;9.466;2022-12-07T14:47:43;4.00;99.90
18974;DHT22;9621;48.690;9.466;2022-12-07T14:50:12;4.00;99.90
18974;DHT22;9621;48.690;9.466;2022-12-07T14:52:39;4.00;99.90
18974;DHT22;9621;48.690;9.466;2022-12-07T14:55:16;4.00;99.90
18974;DHT22;9621;48.690;9.466;2022-12-07T14:57:45;4.00;99.90
18974;DHT22;9621;48.690;9.466;2022-12-07T15:00:17;3.90;99.90
